createdAt,value
2023-03-17T00:02:18.963Z,40.80
2023-03-17T00:04:48.392Z,40.80
2023-03-17T00:07:17.719Z,40.80
2023-03-17T00:09:46.711Z,40.80
2023-03-17T00:12:15.270Z,40.90
2023-03-17T00:14:44.472Z,40.80
2023-03-17T00:17:13.236Z,40.80
2023-03-17T00:19:42.441Z,40.80
2023-03-17T00:22:11.758Z,40.80
2023-03-17T00:24:40.965Z,40.80
2023-03-17T00:27:10.117Z,40.80
2023-03-17T00:29:38.697Z,40.80
2023-03-17T00:32:07.351Z,40.80
2023-03-17T00:34:35.789Z,40.80
2023-03-17T00:37:04.149Z,40.80
2023-03-17T00:39:33.438Z,40.70
2023-03-17T00:42:02.530Z,40.80
2023-03-17T00:44:32.139Z,40.80
2023-03-17T00:47:01.546Z,40.70
2023-03-17T00:49:30.521Z,40.70
2023-03-17T00:51:59.523Z,40.70
2023-03-17T00:54:28.432Z,40.70
2023-03-17T00:57:00.743Z,40.80
2023-03-17T00:59:30.069Z,40.70
2023-03-17T01:01:59.334Z,40.70
2023-03-17T01:04:27.692Z,40.70
2023-03-17T01:06:57.014Z,40.70
2023-03-17T01:09:25.990Z,40.70
2023-03-17T01:11:54.891Z,40.70
2023-03-17T01:14:23.655Z,40.70
2023-03-17T01:16:52.129Z,40.70
2023-03-17T01:19:20.002Z,40.70
2023-03-17T01:21:47.981Z,40.70
2023-03-17T01:24:15.978Z,40.70
2023-03-17T01:26:44.171Z,40.70
2023-03-17T01:29:13.466Z,40.70
2023-03-17T01:31:42.576Z,40.70
2023-03-17T01:34:11.541Z,40.70
2023-03-17T01:36:39.861Z,40.60
2023-03-17T01:39:07.230Z,40.70
2023-03-17T01:41:36.324Z,40.70
2023-03-17T01:44:05.555Z,40.70
2023-03-17T01:46:34.631Z,40.60
2023-03-17T01:49:03.558Z,40.60
2023-03-17T01:51:32.234Z,40.60
2023-03-17T01:54:01.064Z,40.70
2023-03-17T01:56:29.880Z,40.60
2023-03-17T01:58:58.665Z,40.70
2023-03-17T02:01:27.991Z,40.70
2023-03-17T02:03:56.517Z,40.60
2023-03-17T02:06:24.724Z,40.60
2023-03-17T02:08:53.553Z,40.60
2023-03-17T02:11:22.347Z,40.50
2023-03-17T02:13:51.111Z,40.60
2023-03-17T02:16:22.492Z,40.50
2023-03-17T02:18:51.273Z,40.50
2023-03-17T02:21:21.033Z,40.60
2023-03-17T02:23:49.765Z,40.70
2023-03-17T02:26:18.540Z,40.60
2023-03-17T02:28:47.315Z,40.50
2023-03-17T02:31:16.713Z,40.50
2023-03-17T02:33:49.134Z,40.50
2023-03-17T02:36:17.579Z,40.50
2023-03-17T02:38:48.033Z,40.50
2023-03-17T02:41:16.863Z,40.50
2023-03-17T02:43:47.096Z,40.50
2023-03-17T02:46:16.338Z,40.50
2023-03-17T02:48:45.585Z,40.50
2023-03-17T02:51:14.523Z,40.50
2023-03-17T02:53:42.805Z,40.50
2023-03-17T02:56:10.968Z,40.40
2023-03-17T02:58:40.276Z,40.50
2023-03-17T03:01:09.668Z,40.50
2023-03-17T03:03:38.565Z,40.50
2023-03-17T03:06:07.316Z,40.50
2023-03-17T03:08:36.559Z,40.40
2023-03-17T03:11:05.857Z,40.50
2023-03-17T03:13:35.044Z,40.40
2023-03-17T03:16:03.928Z,40.40
2023-03-17T03:18:32.260Z,40.40
2023-03-17T03:21:00.517Z,40.40
2023-03-17T03:23:29.288Z,40.40
2023-03-17T03:25:58.054Z,40.40
2023-03-17T03:28:27.307Z,40.30
2023-03-17T03:30:56.577Z,40.40
2023-03-17T03:33:25.905Z,40.50
2023-03-17T03:35:55.173Z,40.40
2023-03-17T03:38:24.467Z,40.50
2023-03-17T03:40:53.726Z,40.50
2023-03-17T03:43:24.131Z,40.40
2023-03-17T03:45:53.612Z,40.40
2023-03-17T03:48:22.845Z,40.40
2023-03-17T03:50:51.180Z,40.40
2023-03-17T03:53:20.382Z,40.40
2023-03-17T03:55:49.589Z,40.40
2023-03-17T03:58:18.871Z,40.30
2023-03-17T04:00:47.726Z,40.40
2023-03-17T04:03:17.151Z,40.30
2023-03-17T04:05:46.444Z,40.30
2023-03-17T04:08:15.445Z,40.40
2023-03-17T04:10:43.976Z,40.30
2023-03-17T04:13:13.170Z,40.30
2023-03-17T04:15:42.619Z,40.30
2023-03-17T04:18:11.669Z,40.30
2023-03-17T04:20:40.397Z,40.30
2023-03-17T04:23:09.269Z,40.20
2023-03-17T04:25:38.606Z,40.20
2023-03-17T04:28:07.647Z,40.30
2023-03-17T04:30:36.267Z,40.20
2023-03-17T04:33:05.071Z,40.30
2023-03-17T04:35:34.407Z,40.20
2023-03-17T04:38:03.747Z,40.30
2023-03-17T04:40:33.187Z,40.20
2023-03-17T04:43:03.601Z,40.30
2023-03-17T04:45:32.950Z,40.20
2023-03-17T04:48:02.262Z,40.20
2023-03-17T04:50:31.272Z,40.30
2023-03-17T04:53:00.584Z,40.20
2023-03-17T04:55:29.845Z,40.30
2023-03-17T04:57:59.120Z,40.40
2023-03-17T05:00:28.463Z,40.20
2023-03-17T05:02:57.485Z,40.30
2023-03-17T05:05:26.039Z,40.30
2023-03-17T05:07:55.272Z,40.30
2023-03-17T05:10:28.802Z,40.60
2023-03-17T05:12:58.398Z,40.30
2023-03-17T05:15:27.700Z,40.30
2023-03-17T05:18:01.840Z,40.20
2023-03-17T05:20:32.897Z,40.20
2023-03-17T05:23:02.295Z,40.30
2023-03-17T05:25:31.552Z,40.30
2023-03-17T05:28:00.359Z,40.40
2023-03-17T05:30:29.674Z,40.30
2023-03-17T05:32:58.732Z,40.30
2023-03-17T05:35:27.572Z,40.20
2023-03-17T05:37:56.600Z,40.30
2023-03-17T05:40:24.775Z,40.30
2023-03-17T05:42:54.168Z,40.40
2023-03-17T05:45:22.987Z,40.30
2023-03-17T05:47:52.281Z,40.30
2023-03-17T05:50:21.714Z,40.30
2023-03-17T05:52:50.954Z,40.30
2023-03-17T05:55:20.346Z,40.30
2023-03-17T05:57:49.193Z,40.30
2023-03-17T06:00:17.927Z,40.30
2023-03-17T06:02:47.387Z,40.30
2023-03-17T06:05:16.777Z,40.30
2023-03-17T06:07:53.353Z,40.40
2023-03-17T06:10:26.230Z,40.40
2023-03-17T06:12:54.929Z,40.40
2023-03-17T06:15:24.084Z,40.40
2023-03-17T06:17:52.856Z,40.40
2023-03-17T06:20:22.159Z,40.40
2023-03-17T06:23:03.882Z,40.40
2023-03-17T06:25:34.378Z,40.40
2023-03-17T06:28:03.266Z,40.40
2023-03-17T06:30:32.497Z,40.40
2023-03-17T06:33:01.392Z,40.40
2023-03-17T06:35:31.052Z,40.40
2023-03-17T06:38:00.692Z,40.40
2023-03-17T06:40:29.892Z,40.40
2023-03-17T06:43:00.110Z,40.40
2023-03-17T06:45:29.258Z,40.30
2023-03-17T06:47:57.585Z,40.30
2023-03-17T06:50:26.855Z,40.30
2023-03-17T06:53:00.791Z,40.30
2023-03-17T06:55:30.727Z,40.20
2023-03-17T06:57:59.794Z,40.10
2023-03-17T07:00:29.105Z,40.00
2023-03-17T07:03:01.954Z,40.00
2023-03-17T07:05:31.344Z,39.90
2023-03-17T07:08:00.743Z,39.90
2023-03-17T07:10:30.874Z,39.80
2023-03-17T07:13:01.103Z,39.70
2023-03-17T07:15:30.560Z,39.70
2023-03-17T07:17:59.944Z,40.10
2023-03-17T07:20:29.238Z,39.40
2023-03-17T07:22:58.001Z,40.10
2023-03-17T07:25:27.354Z,39.40
2023-03-17T07:27:56.534Z,39.30
2023-03-17T07:30:25.323Z,39.30
2023-03-17T07:32:54.252Z,39.20
2023-03-17T07:35:23.637Z,39.20
2023-03-17T07:37:52.867Z,39.20
2023-03-17T07:40:23.070Z,39.10
2023-03-17T07:42:53.287Z,39.00
2023-03-17T07:45:22.021Z,38.70
2023-03-17T07:47:52.184Z,39.00
2023-03-17T07:50:22.426Z,38.50
2023-03-17T07:52:51.241Z,38.70
2023-03-17T07:55:20.294Z,38.30
2023-03-17T07:57:48.879Z,38.40
2023-03-17T08:00:17.874Z,38.00
2023-03-17T08:02:53.737Z,37.90
2023-03-17T08:05:28.567Z,38.00
2023-03-17T08:07:57.094Z,37.70
2023-03-17T08:10:25.834Z,37.50
2023-03-17T08:12:58.952Z,37.40
2023-03-17T08:15:28.200Z,37.20
2023-03-17T08:17:57.386Z,37.00
2023-03-17T08:20:26.219Z,36.90
2023-03-17T08:22:55.415Z,36.70
2023-03-17T08:25:24.697Z,36.50
2023-03-17T08:27:53.972Z,36.10
2023-03-17T08:30:23.301Z,35.90
2023-03-17T08:32:52.206Z,35.80
2023-03-17T08:35:21.511Z,35.50
2023-03-17T08:37:50.794Z,35.00
2023-03-17T08:40:19.631Z,34.60
2023-03-17T08:42:48.837Z,34.10
2023-03-17T08:45:18.159Z,33.30
2023-03-17T08:47:47.437Z,32.80
2023-03-17T08:50:16.696Z,32.10
2023-03-17T08:52:46.936Z,31.30
2023-03-17T08:55:16.930Z,30.70
2023-03-17T08:57:45.626Z,30.00
2023-03-17T09:00:14.949Z,29.70
2023-03-17T09:02:44.030Z,29.60
2023-03-17T09:05:12.729Z,29.50
2023-03-17T09:07:41.931Z,29.40
2023-03-17T09:10:11.059Z,29.20
2023-03-17T09:12:39.405Z,29.10
2023-03-17T09:15:08.347Z,28.90
2023-03-17T09:17:36.528Z,28.50
2023-03-17T09:20:05.782Z,28.00
2023-03-17T09:22:35.030Z,27.90
2023-03-17T09:25:03.893Z,27.80
2023-03-17T09:27:33.190Z,27.40
2023-03-17T09:30:08.595Z,27.00
2023-03-17T09:32:37.822Z,26.90
2023-03-17T09:35:07.160Z,27.10
2023-03-17T09:37:37.119Z,27.10
2023-03-17T09:40:05.837Z,27.30
2023-03-17T09:42:35.060Z,27.50
2023-03-17T09:45:04.301Z,28.00
2023-03-17T09:47:33.547Z,28.50
2023-03-17T09:50:02.726Z,29.10
2023-03-17T09:52:31.462Z,29.80
2023-03-17T09:55:00.748Z,30.00
2023-03-17T09:57:30.134Z,30.30
2023-03-17T09:59:58.884Z,30.60
2023-03-17T10:02:28.793Z,30.80
2023-03-17T10:04:58.258Z,30.60
2023-03-17T10:07:27.609Z,30.70
2023-03-17T10:09:56.838Z,30.60
2023-03-17T10:12:25.618Z,30.20
2023-03-17T10:14:54.372Z,29.90
2023-03-17T10:17:23.665Z,29.30
2023-03-17T10:19:52.921Z,28.70
2023-03-17T10:22:22.298Z,28.20
2023-03-17T10:24:51.607Z,27.90
2023-03-17T10:27:20.935Z,27.70
2023-03-17T10:29:49.689Z,27.70
2023-03-17T10:32:19.102Z,27.80
2023-03-17T10:34:48.493Z,28.00
2023-03-17T10:37:16.885Z,28.30
2023-03-17T10:39:45.949Z,28.50
2023-03-17T10:42:14.541Z,28.80
2023-03-17T10:44:43.793Z,29.10
2023-03-17T10:47:13.096Z,29.60
2023-03-17T10:49:42.379Z,29.90
2023-03-17T10:52:11.666Z,30.10
2023-03-17T10:54:40.954Z,30.20
2023-03-17T10:57:10.261Z,30.00
2023-03-17T10:59:43.428Z,29.90
2023-03-17T11:02:14.955Z,29.80
2023-03-17T11:04:44.070Z,29.70
2023-03-17T11:07:12.334Z,29.80
2023-03-17T11:09:41.304Z,29.90
2023-03-17T11:12:09.971Z,30.30
2023-03-17T11:14:39.271Z,30.80
2023-03-17T11:17:07.590Z,31.40
2023-03-17T11:19:36.575Z,31.90
2023-03-17T11:22:04.961Z,32.40
2023-03-17T11:24:33.730Z,33.00
2023-03-17T11:27:02.744Z,33.30
2023-03-17T11:29:31.490Z,33.70
2023-03-17T11:32:00.572Z,33.90
2023-03-17T11:34:29.210Z,34.10
2023-03-17T11:36:59.156Z,34.40
2023-03-17T11:39:29.336Z,34.40
2023-03-17T11:41:58.655Z,34.30
2023-03-17T11:44:27.469Z,34.40
2023-03-17T11:46:56.690Z,33.70
2023-03-17T11:49:25.945Z,33.00
2023-03-17T11:51:55.327Z,32.40
2023-03-17T11:54:24.539Z,32.00
2023-03-17T11:56:53.056Z,31.80
2023-03-17T11:59:22.245Z,31.70
2023-03-17T12:01:50.525Z,32.10
2023-03-17T12:04:19.310Z,32.50
2023-03-17T12:06:48.118Z,33.00
2023-03-17T12:09:16.866Z,33.10
2023-03-17T12:11:46.159Z,33.40
2023-03-17T12:14:15.486Z,33.40
2023-03-17T12:16:44.834Z,33.40
2023-03-17T12:19:13.997Z,33.40
2023-03-17T12:21:43.239Z,33.40
2023-03-17T12:24:12.590Z,33.40
2023-03-17T12:26:41.654Z,33.40
2023-03-17T12:29:10.909Z,33.30
2023-03-17T12:31:40.170Z,33.40
2023-03-17T12:34:09.411Z,34.10
2023-03-17T12:36:38.621Z,33.40
2023-03-17T12:39:08.089Z,33.60
2023-03-17T12:41:37.381Z,33.60
2023-03-17T12:44:06.567Z,33.80
2023-03-17T12:46:35.115Z,33.70
2023-03-17T12:49:03.834Z,33.70
2023-03-17T12:51:33.142Z,33.70
2023-03-17T12:54:02.409Z,33.80
2023-03-17T12:56:31.685Z,33.90
2023-03-17T12:59:01.066Z,34.10
2023-03-17T13:01:31.736Z,34.30
2023-03-17T13:04:02.426Z,34.30
2023-03-17T13:06:31.244Z,34.30
2023-03-17T13:09:00.456Z,34.50
2023-03-17T13:11:29.468Z,34.80
2023-03-17T13:13:58.314Z,35.10
2023-03-17T13:16:27.559Z,35.20
2023-03-17T13:18:56.821Z,35.30
2023-03-17T13:21:25.683Z,35.50
2023-03-17T13:23:55.021Z,35.60
2023-03-17T13:26:28.438Z,35.80
2023-03-17T13:28:57.808Z,35.90
2023-03-17T13:31:26.674Z,36.10
2023-03-17T13:33:55.495Z,36.10
2023-03-17T13:36:25.641Z,36.20
2023-03-17T13:39:15.001Z,36.40
2023-03-17T13:41:44.053Z,36.40
2023-03-17T13:44:13.290Z,36.60
2023-03-17T13:46:42.673Z,36.70
2023-03-17T13:49:12.165Z,36.80
2023-03-17T13:51:46.575Z,36.90
2023-03-17T13:54:22.386Z,37.10
2023-03-17T13:56:51.662Z,37.20
2023-03-17T13:59:20.491Z,37.40
2023-03-17T14:01:49.749Z,37.50
2023-03-17T14:04:19.075Z,37.60
2023-03-17T14:06:48.360Z,37.50
2023-03-17T14:09:17.653Z,37.50
2023-03-17T14:11:46.955Z,37.50
2023-03-17T14:14:31.218Z,37.40
2023-03-17T14:17:01.410Z,37.50
2023-03-17T14:19:30.036Z,37.60
2023-03-17T14:21:59.335Z,37.70
2023-03-17T14:24:28.550Z,37.80
2023-03-17T14:26:57.909Z,37.90
2023-03-17T14:29:27.312Z,37.90
2023-03-17T14:31:56.171Z,37.90
2023-03-17T14:34:25.106Z,38.00
2023-03-17T14:36:54.132Z,38.00
2023-03-17T14:39:23.699Z,38.10
2023-03-17T14:41:52.683Z,38.10
2023-03-17T14:44:21.528Z,38.20
2023-03-17T14:46:50.878Z,38.20
2023-03-17T14:49:19.691Z,38.30
2023-03-17T14:51:49.032Z,38.40
2023-03-17T14:54:17.886Z,38.50
2023-03-17T14:56:46.433Z,38.50
2023-03-17T14:59:15.740Z,38.60
2023-03-17T15:01:45.679Z,38.70
2023-03-17T15:04:14.191Z,38.80
2023-03-17T15:06:42.877Z,38.70
2023-03-17T15:09:12.146Z,38.80
2023-03-17T15:11:41.453Z,38.90
2023-03-17T15:14:10.628Z,39.00
2023-03-17T15:16:39.935Z,39.20
2023-03-17T15:19:09.289Z,39.20
2023-03-17T15:21:38.539Z,39.30
2023-03-17T15:24:07.786Z,39.50
2023-03-17T15:26:36.601Z,39.60
2023-03-17T15:29:06.025Z,39.70
2023-03-17T15:31:35.495Z,39.70
2023-03-17T15:34:05.850Z,39.70
2023-03-17T15:36:35.931Z,39.70
2023-03-17T15:39:04.518Z,39.70
2023-03-17T15:41:33.252Z,39.80
2023-03-17T15:44:04.014Z,39.80
2023-03-17T15:46:34.171Z,40.00
2023-03-17T15:49:03.534Z,40.00
2023-03-17T15:51:32.852Z,40.10
2023-03-17T15:54:02.193Z,40.20
2023-03-17T15:56:30.359Z,40.30
2023-03-17T15:58:59.352Z,40.30
2023-03-17T16:01:28.125Z,40.50
2023-03-17T16:03:57.474Z,40.50
2023-03-17T16:06:26.804Z,40.80
2023-03-17T16:08:55.701Z,40.80
2023-03-17T16:11:28.481Z,40.90
2023-03-17T16:13:56.434Z,41.10
2023-03-17T16:16:25.321Z,41.00
2023-03-17T16:18:54.579Z,41.10
2023-03-17T16:21:23.841Z,41.20
2023-03-17T16:23:53.119Z,41.30
2023-03-17T16:26:22.443Z,41.30
2023-03-17T16:28:50.538Z,41.30
2023-03-17T16:31:19.285Z,41.50
2023-03-17T16:33:48.640Z,41.50
2023-03-17T16:36:21.611Z,41.60
2023-03-17T16:38:50.865Z,41.70
2023-03-17T16:41:20.005Z,41.70
2023-03-17T16:43:48.770Z,41.80
2023-03-17T16:46:18.218Z,41.80
2023-03-17T16:48:47.576Z,41.80
2023-03-17T16:51:16.805Z,41.90
2023-03-17T16:53:46.134Z,42.00
2023-03-17T16:56:14.952Z,42.00
2023-03-17T16:58:44.131Z,42.20
2023-03-17T17:01:13.419Z,42.30
2023-03-17T17:03:42.665Z,42.30
2023-03-17T17:06:11.949Z,42.30
2023-03-17T17:08:41.153Z,42.50
2023-03-17T17:11:10.417Z,42.50
2023-03-17T17:13:39.689Z,42.50
2023-03-17T17:16:09.016Z,42.60
2023-03-17T17:18:38.136Z,42.70
2023-03-17T17:21:06.851Z,42.80
2023-03-17T17:23:36.064Z,42.80
2023-03-17T17:26:09.245Z,42.80
2023-03-17T17:28:38.542Z,43.50
2023-03-17T17:31:07.892Z,42.90
2023-03-17T17:33:37.263Z,42.90
2023-03-17T17:36:06.602Z,43.00
2023-03-17T17:38:35.960Z,43.00
2023-03-17T17:41:05.190Z,43.10
2023-03-17T17:43:34.496Z,43.00
2023-03-17T17:46:03.283Z,43.00
2023-03-17T17:48:32.558Z,43.10
2023-03-17T17:51:01.803Z,43.20
2023-03-17T17:53:31.066Z,43.20
2023-03-17T17:56:00.072Z,43.20
2023-03-17T17:58:32.779Z,43.30
2023-03-17T18:01:02.012Z,43.20
2023-03-17T18:03:32.232Z,43.20
2023-03-17T18:06:01.091Z,43.20
2023-03-17T18:08:29.976Z,43.20
2023-03-17T18:10:58.144Z,43.20
2023-03-17T18:13:27.311Z,43.20
2023-03-17T18:15:56.570Z,43.20
2023-03-17T18:18:26.010Z,43.20
2023-03-17T18:20:54.929Z,43.30
2023-03-17T18:23:23.716Z,43.20
2023-03-17T18:25:53.016Z,43.30
2023-03-17T18:28:21.798Z,43.30
2023-03-17T18:30:51.086Z,43.30
2023-03-17T18:33:20.263Z,43.40
2023-03-17T18:35:49.698Z,43.50
2023-03-17T18:38:19.160Z,43.40
2023-03-17T18:40:48.455Z,43.50
2023-03-17T18:43:17.168Z,44.00
2023-03-17T18:45:46.218Z,44.10
2023-03-17T18:48:14.825Z,43.80
2023-03-17T18:50:43.724Z,43.80
2023-03-17T18:53:13.045Z,44.10
2023-03-17T18:55:42.145Z,44.40
2023-03-17T18:58:14.521Z,44.20
2023-03-17T19:00:43.831Z,44.40
2023-03-17T19:03:12.891Z,45.00
2023-03-17T19:05:41.481Z,44.50
2023-03-17T19:08:10.655Z,44.60
2023-03-17T19:10:39.989Z,44.70
2023-03-17T19:13:10.341Z,44.70
2023-03-17T19:15:39.369Z,44.50
2023-03-17T19:18:07.948Z,44.70
2023-03-17T19:20:37.372Z,44.60
2023-03-17T19:23:06.812Z,44.70
2023-03-17T19:25:36.213Z,44.60
2023-03-17T19:28:05.419Z,44.60
2023-03-17T19:30:35.214Z,44.60
2023-03-17T19:33:04.957Z,44.50
2023-03-17T19:35:34.343Z,44.50
2023-03-17T19:38:03.813Z,44.40
2023-03-17T19:40:33.607Z,44.30
2023-03-17T19:43:03.052Z,44.30
2023-03-17T19:45:33.181Z,44.30
2023-03-17T19:48:02.985Z,44.30
2023-03-17T19:50:32.388Z,44.20
2023-03-17T19:53:01.959Z,44.20
2023-03-17T19:55:31.608Z,44.30
2023-03-17T19:58:01.037Z,44.10
2023-03-17T20:00:33.958Z,44.20
2023-03-17T20:03:03.287Z,44.10
2023-03-17T20:05:32.482Z,44.10
2023-03-17T20:08:01.080Z,44.00
2023-03-17T20:10:29.896Z,44.00
2023-03-17T20:12:59.414Z,44.60
2023-03-17T20:15:28.401Z,44.00
2023-03-17T20:17:57.031Z,44.00
2023-03-17T20:20:26.374Z,44.10
2023-03-17T20:22:55.698Z,43.90
2023-03-17T20:25:24.911Z,43.90
2023-03-17T20:27:54.084Z,43.90
2023-03-17T20:30:22.857Z,43.90
2023-03-17T20:32:52.132Z,43.90
2023-03-17T20:35:21.134Z,43.90
2023-03-17T20:37:49.850Z,43.90
2023-03-17T20:40:19.244Z,43.90
2023-03-17T20:42:48.057Z,43.90
2023-03-17T20:45:16.388Z,43.80
2023-03-17T20:47:45.715Z,43.90
2023-03-17T20:50:14.915Z,43.90
2023-03-17T20:52:44.185Z,43.80
2023-03-17T20:55:13.426Z,43.80
2023-03-17T20:57:42.734Z,43.90
2023-03-17T21:00:12.041Z,43.90
2023-03-17T21:02:40.807Z,43.80
2023-03-17T21:05:09.606Z,43.80
2023-03-17T21:07:38.863Z,43.80
2023-03-17T21:10:07.852Z,43.80
2023-03-17T21:12:36.554Z,43.90
2023-03-17T21:15:05.948Z,43.90
2023-03-17T21:17:35.254Z,43.90
2023-03-17T21:20:04.585Z,43.80
2023-03-17T21:22:33.398Z,43.90
2023-03-17T21:25:02.224Z,43.80
2023-03-17T21:27:31.262Z,43.90
2023-03-17T21:29:59.557Z,43.80
2023-03-17T21:32:28.234Z,43.80
2023-03-17T21:34:57.277Z,43.80
2023-03-17T21:37:25.908Z,43.90
2023-03-17T21:39:54.722Z,43.80
2023-03-17T21:42:23.946Z,43.80
2023-03-17T21:44:54.043Z,43.90
2023-03-17T21:47:24.440Z,43.90
2023-03-17T21:49:53.415Z,43.80
2023-03-17T21:52:22.870Z,43.90
2023-03-17T21:54:53.061Z,43.80
2023-03-17T21:57:22.515Z,44.00
2023-03-17T21:59:51.905Z,43.90
2023-03-17T22:02:21.126Z,43.90
2023-03-17T22:04:49.970Z,43.80
2023-03-17T22:07:18.746Z,43.80
2023-03-17T22:09:48.044Z,43.80
2023-03-17T22:12:17.397Z,44.00
2023-03-17T22:14:46.807Z,44.00
2023-03-17T22:17:19.800Z,43.90
2023-03-17T22:19:50.156Z,44.00
2023-03-17T22:22:20.513Z,43.90
2023-03-17T22:24:49.509Z,44.10
2023-03-17T22:27:18.189Z,44.00
2023-03-17T22:29:47.401Z,44.00
2023-03-17T22:32:16.564Z,44.10
2023-03-17T22:34:45.023Z,44.00
2023-03-17T22:37:13.616Z,44.00
2023-03-17T22:39:42.930Z,44.10
2023-03-17T22:42:12.270Z,44.10
2023-03-17T22:44:41.557Z,44.20
2023-03-17T22:47:10.830Z,44.20
2023-03-17T22:49:40.174Z,44.30
2023-03-17T22:52:09.210Z,44.30
2023-03-17T22:54:37.283Z,44.30
2023-03-17T22:57:06.500Z,44.30
2023-03-17T22:59:35.728Z,44.20
2023-03-17T23:02:04.674Z,44.30
2023-03-17T23:04:32.406Z,44.40
2023-03-17T23:07:02.947Z,44.30
2023-03-17T23:09:31.907Z,44.30
2023-03-17T23:11:59.596Z,44.30
2023-03-17T23:14:28.332Z,44.30
2023-03-17T23:16:57.681Z,44.40
2023-03-17T23:19:27.017Z,44.30
2023-03-17T23:21:56.087Z,44.40
2023-03-17T23:24:28.494Z,44.40
2023-03-17T23:26:57.252Z,44.40
2023-03-17T23:29:26.583Z,44.30
2023-03-17T23:31:55.556Z,44.30
2023-03-17T23:34:24.140Z,44.30
2023-03-17T23:36:53.385Z,44.30
2023-03-17T23:39:22.713Z,44.30
2023-03-17T23:41:51.624Z,44.30
2023-03-17T23:44:20.396Z,44.40
2023-03-17T23:46:49.652Z,44.40
2023-03-17T23:49:18.435Z,44.40
2023-03-17T23:51:47.209Z,44.40
2023-03-17T23:54:16.390Z,44.30
2023-03-17T23:56:45.298Z,44.50
2023-03-17T23:59:13.797Z,44.50
